Time;durP1;ratioP1;P1;durP2;ratioP2;P2;SDS_P1;SDS_P2;PMS_P1;PMS_P2;Temp;Humidity;BMP_temperature;BMP_pressure;BME280_temperature;BME280_humidity;BME280_pressure;Samples;Min_cycle;Max_cycle;Signal;HPM_P1;HPM_P2
2021/03/16 00:01:00;;;;;;;22.50;3.80;;;;;;;;;;5103293;28;20031;-50
2021/03/16 00:03:26;;;;;;;8.20;3.03;;;;;;;;;;5104480;28;20031;-48
2021/03/16 00:05:51;;;;;;;8.43;3.88;;;;;;;;;;5105910;28;20630;-49
2021/03/16 00:08:17;;;;;;;9.63;4.28;;;;;;;;;;5103984;28;20479;-50
2021/03/16 00:10:42;;;;;;;13.52;4.45;;;;;;;;;;5104657;28;20028;-49
2021/03/16 00:13:08;;;;;;;10.68;3.72;;;;;;;;;;5105567;28;20031;-49
2021/03/16 00:15:33;;;;;;;9.85;3.47;;;;;;;;;;5103590;28;20034;-52
2021/03/16 00:17:58;;;;;;;9.23;3.10;;;;;;;;;;5103517;28;20043;-51
2021/03/16 00:20:24;;;;;;;13.48;4.20;;;;;;;;;;5104282;28;20034;-52
2021/03/16 00:22:49;;;;;;;11.95;3.67;;;;;;;;;;5105205;28;20078;-50
2021/03/16 00:25:16;;;;;;;14.38;3.30;;;;;;;;;;5105667;28;20042;-52
2021/03/16 00:27:41;;;;;;;8.30;3.25;;;;;;;;;;5102192;28;20050;-53
2021/03/16 00:30:07;;;;;;;14.23;3.75;;;;;;;;;;5105659;28;20031;-50
2021/03/16 00:32:33;;;;;;;9.43;3.65;;;;;;;;;;5103107;28;20032;-53
2021/03/16 00:34:58;;;;;;;8.57;3.60;;;;;;;;;;5104303;28;20062;-50
2021/03/16 00:37:24;;;;;;;15.32;3.95;;;;;;;;;;5103328;28;20468;-53
2021/03/16 00:39:51;;;;;;;14.27;4.05;;;;;;;;;;5104295;28;20493;-50
2021/03/16 00:42:17;;;;;;;9.60;4.15;;;;;;;;;;5096884;28;20032;-51
2021/03/16 00:44:42;;;;;;;9.13;3.00;;;;;;;;;;5103589;28;20408;-52
2021/03/16 00:47:08;;;;;;;10.48;3.53;;;;;;;;;;5107298;28;20801;-51
2021/03/16 00:49:33;;;;;;;10.40;3.17;;;;;;;;;;5097550;28;20107;-51
2021/03/16 00:51:59;;;;;;;20.73;3.80;;;;;;;;;;5105425;28;20100;-51
2021/03/16 00:54:25;;;;;;;13.05;3.83;;;;;;;;;;5103692;28;20028;-51
2021/03/16 00:56:50;;;;;;;9.65;3.30;;;;;;;;;;5103475;28;20540;-53
2021/03/16 00:59:15;;;;;;;12.52;3.22;;;;;;;;;;5102738;28;20035;-52
2021/03/16 01:01:41;;;;;;;8.50;3.30;;;;;;;;;;5103493;28;20110;-52
2021/03/16 01:04:06;;;;;;;11.40;3.88;;;;;;;;;;5105182;28;20035;-52
2021/03/16 01:06:32;;;;;;;14.13;3.47;;;;;;;;;;5101331;28;20101;-52
2021/03/16 01:08:57;;;;;;;12.07;3.13;;;;;;;;;;5104620;28;20036;-50
2021/03/16 01:11:23;;;;;;;9.82;3.25;;;;;;;;;;5102990;28;20384;-52
2021/03/16 01:13:48;;;;;;;10.50;2.58;;;;;;;;;;5102411;28;20029;-53
2021/03/16 01:16:13;;;;;;;7.22;2.65;;;;;;;;;;5104056;28;20656;-50
2021/03/16 01:18:39;;;;;;;11.93;3.13;;;;;;;;;;5101670;28;20038;-49
2021/03/16 01:21:04;;;;;;;7.00;2.58;;;;;;;;;;5104404;28;20034;-51
2021/03/16 01:23:30;;;;;;;11.98;3.28;;;;;;;;;;5094769;28;21016;-49
2021/03/16 01:25:55;;;;;;;8.73;2.97;;;;;;;;;;5101110;28;20031;-49
2021/03/16 01:28:20;;;;;;;6.38;2.50;;;;;;;;;;5101139;28;20155;-48
2021/03/16 01:30:46;;;;;;;8.13;2.70;;;;;;;;;;5101230;28;20071;-51
2021/03/16 01:33:11;;;;;;;9.32;2.60;;;;;;;;;;5104804;28;20027;-50
2021/03/16 01:35:37;;;;;;;8.25;2.97;;;;;;;;;;5102226;28;20473;-51
2021/03/16 01:38:02;;;;;;;12.57;3.17;;;;;;;;;;5104742;28;20462;-54
2021/03/16 01:40:45;;;;;;;8.35;2.45;;;;;;;;;;5098449;28;20043;-52
2021/03/16 01:43:14;;;;;;;9.48;2.72;;;;;;;;;;5104056;28;20044;-50
2021/03/16 01:45:41;;;;;;;6.05;2.42;;;;;;;;;;5109067;28;20096;-50
2021/03/16 01:48:08;;;;;;;6.30;2.00;;;;;;;;;;5101896;28;20023;-54
2021/03/16 01:50:34;;;;;;;9.70;2.70;;;;;;;;;;5103126;28;20093;-49
2021/03/16 01:53:01;;;;;;;14.20;3.38;;;;;;;;;;5102717;28;20457;-52
2021/03/16 01:55:27;;;;;;;9.57;3.50;;;;;;;;;;5102274;28;20385;-47
2021/03/16 01:57:54;;;;;;;10.93;2.83;;;;;;;;;;5102909;28;20049;-52
2021/03/16 02:00:20;;;;;;;15.85;4.75;;;;;;;;;;5107839;28;20516;-51
2021/03/16 02:02:46;;;;;;;14.10;3.50;;;;;;;;;;5107455;28;20032;-50
2021/03/16 02:05:12;;;;;;;14.27;2.55;;;;;;;;;;5105697;28;20031;-52
2021/03/16 02:07:50;;;;;;;11.15;3.53;;;;;;;;;;5104138;28;20061;-53
2021/03/16 02:10:30;;;;;;;12.68;3.63;;;;;;;;;;5106949;28;20027;-51
2021/03/16 02:13:03;;;;;;;11.48;3.30;;;;;;;;;;5106280;28;20364;-52
2021/03/16 02:15:37;;;;;;;8.63;2.88;;;;;;;;;;5106025;28;20396;-52
2021/03/16 02:18:16;;;;;;;9.00;2.88;;;;;;;;;;5108360;28;20175;-52
2021/03/16 02:20:59;;;;;;;13.07;3.83;;;;;;;;;;5110310;28;20031;-51
2021/03/16 02:23:39;;;;;;;7.00;2.55;;;;;;;;;;5101299;28;20348;-52
2021/03/16 02:26:15;;;;;;;7.28;2.45;;;;;;;;;;5109693;28;20483;-51
2021/03/16 02:29:07;;;;;;;9.50;2.78;;;;;;;;;;5104538;28;20048;-53
2021/03/16 02:31:34;;;;;;;6.90;2.88;;;;;;;;;;5106959;28;20036;-51
2021/03/16 02:34:05;;;;;;;8.35;3.17;;;;;;;;;;5111597;28;20102;-51
2021/03/16 02:36:32;;;;;;;12.95;3.47;;;;;;;;;;5104976;28;20042;-52
2021/03/16 02:39:00;;;;;;;15.43;3.15;;;;;;;;;;5107630;28;20059;-52
2021/03/16 02:41:26;;;;;;;10.75;3.08;;;;;;;;;;5106339;28;20414;-53
2021/03/16 02:43:52;;;;;;;10.10;2.72;;;;;;;;;;5112340;28;20032;-52
2021/03/16 02:46:18;;;;;;;13.75;3.63;;;;;;;;;;5107651;28;20024;-50
2021/03/16 02:48:47;;;;;;;12.70;4.05;;;;;;;;;;5112491;28;20089;-49
2021/03/16 02:51:14;;;;;;;11.00;3.10;;;;;;;;;;5110146;28;20111;-54
2021/03/16 02:53:40;;;;;;;8.73;2.38;;;;;;;;;;5108348;28;20015;-52
2021/03/16 02:56:07;;;;;;;12.50;3.13;;;;;;;;;;5112093;28;20035;-52
2021/03/16 02:58:33;;;;;;;7.50;2.65;;;;;;;;;;5109791;28;20050;-51
2021/03/16 03:01:00;;;;;;;11.52;3.50;;;;;;;;;;5110258;28;20065;-50
2021/03/16 03:03:27;;;;;;;8.38;2.65;;;;;;;;;;5109742;28;20026;-48
2021/03/16 03:05:55;;;;;;;8.10;2.28;;;;;;;;;;5109729;28;20090;-50
2021/03/16 03:08:22;;;;;;;7.32;3.00;;;;;;;;;;5104710;28;20031;-50
2021/03/16 03:10:47;;;;;;;15.52;3.15;;;;;;;;;;5111308;28;20111;-52
2021/03/16 03:13:13;;;;;;;7.40;2.78;;;;;;;;;;5111791;28;20404;-51
2021/03/16 03:15:38;;;;;;;7.75;2.70;;;;;;;;;;5110422;28;20528;-50
2021/03/16 03:18:04;;;;;;;12.15;2.78;;;;;;;;;;5112287;28;20361;-51
2021/03/16 03:20:33;;;;;;;11.48;3.63;;;;;;;;;;5107298;28;20067;-52
2021/03/16 03:23:09;;;;;;;11.82;3.35;;;;;;;;;;5111422;28;20039;-52
2021/03/16 03:25:39;;;;;;;11.82;3.33;;;;;;;;;;5106917;28;20042;-50
2021/03/16 03:28:09;;;;;;;16.13;4.32;;;;;;;;;;5112056;28;20036;-51
2021/03/16 03:30:35;;;;;;;8.15;3.47;;;;;;;;;;5110163;28;20130;-50
2021/03/16 03:33:03;;;;;;;8.88;3.30;;;;;;;;;;5109962;28;20122;-49
2021/03/16 03:35:32;;;;;;;13.68;2.67;;;;;;;;;;5108812;28;20028;-50
2021/03/16 03:38:00;;;;;;;14.23;3.65;;;;;;;;;;5110875;28;20122;-51
2021/03/16 03:40:27;;;;;;;11.35;3.45;;;;;;;;;;5111077;28;20027;-48
2021/03/16 03:42:54;;;;;;;8.57;3.25;;;;;;;;;;5109446;28;20045;-49
2021/03/16 03:45:20;;;;;;;13.88;3.00;;;;;;;;;;5106768;28;20143;-47
2021/03/16 03:47:46;;;;;;;10.88;3.53;;;;;;;;;;5109600;28;20064;-51
2021/03/16 03:50:13;;;;;;;12.43;3.90;;;;;;;;;;5106754;28;20032;-49
2021/03/16 03:52:39;;;;;;;8.07;3.53;;;;;;;;;;5106938;28;20023;-50
2021/03/16 03:55:06;;;;;;;11.80;3.70;;;;;;;;;;5111398;28;20038;-47
2021/03/16 03:57:32;;;;;;;24.50;4.05;;;;;;;;;;5100978;28;20051;-49
2021/03/16 03:59:59;;;;;;;7.32;3.22;;;;;;;;;;5110379;28;20420;-51
2021/03/16 04:02:25;;;;;;;8.60;3.13;;;;;;;;;;5110810;28;20047;-48
2021/03/16 04:04:51;;;;;;;18.50;4.00;;;;;;;;;;5110045;28;20035;-48
2021/03/16 04:07:18;;;;;;;17.02;4.65;;;;;;;;;;5107633;28;20349;-50
2021/03/16 04:09:43;;;;;;;8.77;3.55;;;;;;;;;;5108349;28;20020;-49
2021/03/16 04:12:11;;;;;;;12.80;3.42;;;;;;;;;;5109554;28;20036;-49
2021/03/16 04:14:37;;;;;;;7.75;3.47;;;;;;;;;;5109837;28;20629;-51
2021/03/16 04:17:03;;;;;;;15.73;3.95;;;;;;;;;;5109032;28;20042;-48
2021/03/16 04:19:28;;;;;;;10.32;4.10;;;;;;;;;;5110748;28;20038;-49
2021/03/16 04:21:55;;;;;;;13.98;4.40;;;;;;;;;;5109537;28;20035;-49
2021/03/16 04:24:22;;;;;;;13.63;4.20;;;;;;;;;;5106928;28;20036;-49
2021/03/16 04:26:47;;;;;;;15.45;3.92;;;;;;;;;;5110389;28;20036;-50
2021/03/16 04:29:12;;;;;;;9.43;4.07;;;;;;;;;;5110334;28;20039;-51
2021/03/16 04:31:38;;;;;;;23.02;4.90;;;;;;;;;;5106234;28;20445;-52
2021/03/16 04:34:03;;;;;;;16.48;4.50;;;;;;;;;;5109085;28;20040;-48
2021/03/16 04:36:29;;;;;;;14.15;4.80;;;;;;;;;;5110128;28;20043;-48
2021/03/16 04:38:54;;;;;;;9.30;4.20;;;;;;;;;;5109010;28;20111;-52
2021/03/16 04:41:19;;;;;;;10.43;3.50;;;;;;;;;;5109272;28;20023;-49
2021/03/16 04:43:45;;;;;;;16.25;4.05;;;;;;;;;;5108257;28;20028;-52
2021/03/16 04:46:11;;;;;;;13.82;4.53;;;;;;;;;;5110387;28;20444;-48
2021/03/16 04:48:37;;;;;;;10.82;4.57;;;;;;;;;;5109641;28;20077;-51
2021/03/16 04:51:02;;;;;;;10.55;4.57;;;;;;;;;;5109978;28;20060;-49
2021/03/16 04:53:28;;;;;;;13.18;4.72;;;;;;;;;;5107863;28;20034;-51
2021/03/16 04:55:53;;;;;;;15.70;5.18;;;;;;;;;;5109434;28;20044;-50
2021/03/16 04:58:19;;;;;;;13.02;4.55;;;;;;;;;;5108564;28;20042;-51
2021/03/16 05:00:44;;;;;;;11.98;4.35;;;;;;;;;;5108520;28;20403;-53
2021/03/16 05:03:10;;;;;;;16.98;4.97;;;;;;;;;;5110312;28;20135;-53
2021/03/16 05:05:35;;;;;;;13.18;4.40;;;;;;;;;;5109367;28;20046;-53
2021/03/16 05:08:00;;;;;;;18.23;5.40;;;;;;;;;;5107751;28;20042;-51
2021/03/16 05:10:26;;;;;;;24.20;5.05;;;;;;;;;;5106784;28;20417;-50
2021/03/16 05:12:51;;;;;;;12.27;4.43;;;;;;;;;;5109556;28;20075;-55
2021/03/16 05:15:17;;;;;;;12.70;3.90;;;;;;;;;;5109372;28;20024;-54
2021/03/16 05:17:42;;;;;;;13.50;4.82;;;;;;;;;;5109616;28;20051;-52
2021/03/16 05:20:08;;;;;;;10.77;4.03;;;;;;;;;;5106966;28;20046;-50
2021/03/16 05:22:34;;;;;;;12.07;5.15;;;;;;;;;;5106959;28;20023;-53
2021/03/16 05:24:59;;;;;;;10.93;4.50;;;;;;;;;;5109414;28;20107;-52
2021/03/16 05:27:25;;;;;;;9.23;3.65;;;;;;;;;;5103643;28;20032;-52
2021/03/16 05:29:50;;;;;;;11.68;4.75;;;;;;;;;;5107496;28;20623;-48
2021/03/16 05:32:16;;;;;;;9.80;4.32;;;;;;;;;;5108495;28;20016;-48
2021/03/16 05:34:41;;;;;;;14.85;5.65;;;;;;;;;;5107880;28;20577;-48
2021/03/16 05:37:07;;;;;;;12.73;6.97;;;;;;;;;;5108892;28;20472;-51
2021/03/16 05:39:32;;;;;;;12.18;5.25;;;;;;;;;;5109145;28;20028;-52
2021/03/16 05:41:58;;;;;;;13.98;5.68;;;;;;;;;;5109002;28;20028;-49
2021/03/16 05:44:23;;;;;;;12.43;5.82;;;;;;;;;;5104936;28;20036;-48
2021/03/16 05:46:49;;;;;;;14.57;5.57;;;;;;;;;;5109221;28;20372;-51
2021/03/16 05:49:16;;;;;;;10.93;4.50;;;;;;;;;;5109065;28;20528;-51
2021/03/16 05:51:41;;;;;;;10.88;4.93;;;;;;;;;;5107622;28;20039;-49
2021/03/16 05:54:08;;;;;;;12.88;5.82;;;;;;;;;;5109166;28;20457;-50
2021/03/16 05:56:34;;;;;;;133.52;86.85;;;;;;;;;;5106762;28;20040;-51
2021/03/16 05:59:03;;;;;;;199.25;149.85;;;;;;;;;;5107837;28;20047;-49
2021/03/16 06:01:28;;;;;;;130.88;106.78;;;;;;;;;;5107090;28;20115;-48
2021/03/16 06:03:54;;;;;;;54.20;44.38;;;;;;;;;;5108765;28;20119;-52
2021/03/16 06:06:19;;;;;;;27.05;16.08;;;;;;;;;;5105711;28;20045;-50
2021/03/16 06:08:44;;;;;;;13.80;7.93;;;;;;;;;;5104391;28;20471;-51
2021/03/16 06:11:11;;;;;;;13.48;5.70;;;;;;;;;;5109010;28;20027;-51
2021/03/16 06:13:48;;;;;;;14.70;5.35;;;;;;;;;;5101361;28;20031;-47
2021/03/16 06:16:15;;;;;;;16.27;6.50;;;;;;;;;;5103370;28;20069;-53
2021/03/16 06:18:42;;;;;;;9.70;4.60;;;;;;;;;;5105824;28;20031;-51
2021/03/16 06:21:08;;;;;;;10.10;5.07;;;;;;;;;;5096455;28;20380;-50
2021/03/16 06:23:35;;;;;;;18.88;6.15;;;;;;;;;;5101572;28;20100;-49
2021/03/16 06:26:02;;;;;;;12.63;5.35;;;;;;;;;;5099588;28;20357;-51
2021/03/16 06:28:32;;;;;;;15.10;5.70;;;;;;;;;;5104257;28;20365;-50
2021/03/16 06:30:59;;;;;;;12.90;4.82;;;;;;;;;;5108611;28;20032;-51
2021/03/16 06:33:27;;;;;;;12.02;5.78;;;;;;;;;;5104796;28;20027;-50
2021/03/16 06:35:56;;;;;;;15.90;5.75;;;;;;;;;;5100679;28;20509;-51
2021/03/16 06:38:22;;;;;;;10.63;4.65;;;;;;;;;;5099188;28;20078;-50
2021/03/16 06:40:47;;;;;;;18.83;5.72;;;;;;;;;;5107712;28;20055;-51
2021/03/16 06:43:12;;;;;;;13.10;5.55;;;;;;;;;;5099305;28;20050;-54
2021/03/16 06:45:40;;;;;;;12.15;5.82;;;;;;;;;;5111927;28;20042;-52
2021/03/16 06:48:16;;;;;;;16.42;6.22;;;;;;;;;;5111312;28;20035;-49
2021/03/16 06:50:43;;;;;;;10.70;5.47;;;;;;;;;;5108556;28;20481;-50
2021/03/16 06:53:34;;;;;;;12.95;5.85;;;;;;;;;;5108769;28;20039;-50
2021/03/16 06:56:00;;;;;;;12.60;5.55;;;;;;;;;;5109593;28;20051;-49
2021/03/16 06:58:28;;;;;;;17.83;5.88;;;;;;;;;;5104105;28;20089;-50
2021/03/16 07:01:10;;;;;;;10.18;6.75;;;;;;;;;;5101955;28;20023;-53
2021/03/16 07:03:36;;;;;;;16.38;6.53;;;;;;;;;;5103414;28;20042;-51
2021/03/16 07:06:18;;;;;;;16.65;5.95;;;;;;;;;;5108417;28;20074;-49
2021/03/16 07:08:45;;;;;;;12.75;6.13;;;;;;;;;;5105356;28;20036;-48
2021/03/16 07:11:23;;;;;;;16.77;6.55;;;;;;;;;;5110910;28;20114;-49
2021/03/16 07:13:49;;;;;;;12.57;5.97;;;;;;;;;;5106984;28;20355;-51
2021/03/16 07:16:14;;;;;;;11.25;7.20;;;;;;;;;;5103880;28;20376;-50
2021/03/16 07:18:42;;;;;;;11.82;5.35;;;;;;;;;;5106030;28;20031;-51
2021/03/16 07:21:29;;;;;;;15.13;6.72;;;;;;;;;;5103124;28;20063;-52
2021/03/16 07:24:01;;;;;;;19.65;6.13;;;;;;;;;;5111201;28;20711;-48
2021/03/16 07:26:26;;;;;;;12.13;6.13;;;;;;;;;;5101030;28;20028;-48
2021/03/16 07:28:52;;;;;;;12.93;5.10;;;;;;;;;;5099213;28;20043;-50
2021/03/16 07:31:18;;;;;;;15.73;4.90;;;;;;;;;;5102241;28;20104;-50
2021/03/16 07:33:44;;;;;;;13.18;4.93;;;;;;;;;;5111820;28;20027;-49
2021/03/16 07:36:10;;;;;;;12.27;5.10;;;;;;;;;;5105567;28;20039;-48
2021/03/16 07:38:38;;;;;;;15.60;4.68;;;;;;;;;;5107174;28;20028;-49
2021/03/16 07:41:04;;;;;;;12.35;4.68;;;;;;;;;;5105773;28;20028;-49
2021/03/16 07:43:40;;;;;;;16.90;5.10;;;;;;;;;;5107999;28;20036;-52
2021/03/16 07:46:17;;;;;;;12.95;5.00;;;;;;;;;;5107662;28;20367;-52
2021/03/16 07:48:47;;;;;;;12.63;5.07;;;;;;;;;;5107531;28;20064;-51
2021/03/16 07:51:21;;;;;;;14.13;4.72;;;;;;;;;;5110388;28;20110;-48
2021/03/16 07:54:03;;;;;;;17.30;5.35;;;;;;;;;;5100917;28;20038;-49
2021/03/16 07:56:31;;;;;;;10.52;4.55;;;;;;;;;;5103830;28;20028;-48
2021/03/16 07:58:57;;;;;;;11.45;5.68;;;;;;;;;;5110343;28;20122;-52
2021/03/16 08:01:22;;;;;;;12.82;4.70;;;;;;;;;;5110612;28;20158;-51
2021/03/16 08:03:48;;;;;;;14.02;4.82;;;;;;;;;;5110717;28;20092;-52
2021/03/16 08:06:24;;;;;;;12.45;4.93;;;;;;;;;;5102351;28;20035;-56
2021/03/16 08:08:50;;;;;;;14.80;5.07;;;;;;;;;;5104662;28;20032;-54
2021/03/16 08:11:16;;;;;;;22.73;4.95;;;;;;;;;;5109477;28;20031;-51
2021/03/16 08:13:54;;;;;;;17.35;4.28;;;;;;;;;;5110709;28;20076;-48
2021/03/16 08:16:32;;;;;;;15.13;4.80;;;;;;;;;;5102545;28;20031;-50
2021/03/16 08:19:15;;;;;;;11.50;5.15;;;;;;;;;;5108125;28;20039;-50
2021/03/16 08:21:43;;;;;;;11.77;4.82;;;;;;;;;;5106968;28;20035;-48
2021/03/16 08:24:14;;;;;;;12.45;4.72;;;;;;;;;;5088089;28;20072;-48
2021/03/16 08:26:51;;;;;;;14.73;4.18;;;;;;;;;;5095901;28;20023;-51
2021/03/16 08:29:26;;;;;;;14.85;6.40;;;;;;;;;;5109117;28;20023;-53
2021/03/16 08:31:53;;;;;;;9.02;4.80;;;;;;;;;;5099607;28;20122;-52
2021/03/16 08:34:21;;;;;;;14.88;5.45;;;;;;;;;;5098379;28;20403;-52
2021/03/16 08:36:47;;;;;;;16.80;5.97;;;;;;;;;;5094687;28;20039;-54
2021/03/16 08:39:24;;;;;;;16.02;5.38;;;;;;;;;;5086790;28;20399;-52
2021/03/16 08:41:58;;;;;;;14.02;5.60;;;;;;;;;;5095018;28;20057;-52
2021/03/16 08:44:28;;;;;;;15.88;5.97;;;;;;;;;;5094858;28;20838;-48
2021/03/16 08:46:56;;;;;;;16.23;7.25;;;;;;;;;;5102481;28;20032;-50
2021/03/16 08:49:24;;;;;;;13.35;5.40;;;;;;;;;;5103169;28;20037;-49
2021/03/16 08:51:50;;;;;;;16.40;5.88;;;;;;;;;;5104840;28;20046;-51
2021/03/16 08:54:25;;;;;;;13.85;6.47;;;;;;;;;;5106646;28;20020;-49
2021/03/16 08:56:51;;;;;;;15.35;5.43;;;;;;;;;;5106776;28;20551;-50
2021/03/16 08:59:19;;;;;;;14.45;5.72;;;;;;;;;;5099709;28;20043;-49
2021/03/16 09:01:49;;;;;;;12.38;4.68;;;;;;;;;;5107063;28;20345;-52
2021/03/16 09:04:16;;;;;;;13.80;4.93;;;;;;;;;;5104023;28;20078;-50
2021/03/16 09:06:42;;;;;;;11.80;4.63;;;;;;;;;;5105907;28;20141;-50
2021/03/16 09:09:10;;;;;;;10.10;4.45;;;;;;;;;;5086893;28;20130;-50
2021/03/16 09:11:43;;;;;;;9.93;4.82;;;;;;;;;;5096166;28;20032;-52
2021/03/16 09:14:15;;;;;;;18.33;5.45;;;;;;;;;;5106853;28;20024;-49
2021/03/16 09:16:49;;;;;;;18.63;5.32;;;;;;;;;;5098594;28;20038;-53
2021/03/16 09:19:17;;;;;;;15.52;5.43;;;;;;;;;;5100106;28;20088;-50
2021/03/16 09:21:49;;;;;;;10.52;4.55;;;;;;;;;;5104304;28;20027;-52
2021/03/16 09:24:17;;;;;;;7.57;3.72;;;;;;;;;;5104492;28;20032;-48
2021/03/16 09:26:43;;;;;;;10.95;4.47;;;;;;;;;;5104406;28;20032;-50
2021/03/16 09:29:08;;;;;;;11.48;4.60;;;;;;;;;;5100752;28;20024;-50
2021/03/16 09:31:34;;;;;;;15.05;5.07;;;;;;;;;;5101898;28;20031;-52
2021/03/16 09:33:59;;;;;;;9.95;4.13;;;;;;;;;;5097900;28;20027;-52
2021/03/16 09:36:28;;;;;;;9.10;3.35;;;;;;;;;;5100460;28;20036;-50
2021/03/16 09:38:57;;;;;;;9.85;3.53;;;;;;;;;;5094182;28;20689;-51
2021/03/16 09:41:24;;;;;;;9.07;4.50;;;;;;;;;;5097695;28;20176;-50
2021/03/16 09:43:50;;;;;;;8.38;4.03;;;;;;;;;;5101452;28;20128;-52
2021/03/16 09:46:16;;;;;;;13.43;4.25;;;;;;;;;;5104688;28;20077;-49
2021/03/16 09:48:49;;;;;;;9.02;4.57;;;;;;;;;;5104031;28;20797;-51
2021/03/16 09:51:15;;;;;;;12.07;3.50;;;;;;;;;;5102040;28;20089;-52
2021/03/16 09:53:48;;;;;;;10.55;3.83;;;;;;;;;;5106372;28;20070;-51
2021/03/16 09:56:14;;;;;;;13.63;3.85;;;;;;;;;;5103669;28;20032;-54
2021/03/16 09:58:46;;;;;;;13.48;3.55;;;;;;;;;;5087429;28;20078;-52
2021/03/16 10:01:11;;;;;;;9.75;3.13;;;;;;;;;;5093230;28;20039;-49
2021/03/16 10:03:37;;;;;;;10.68;3.67;;;;;;;;;;5101473;28;20036;-51
2021/03/16 10:06:06;;;;;;;10.20;3.42;;;;;;;;;;5100263;28;20035;-52
2021/03/16 10:08:32;;;;;;;14.27;3.40;;;;;;;;;;5101661;28;20032;-52
2021/03/16 10:10:58;;;;;;;10.27;2.70;;;;;;;;;;5105716;28;20039;-50
2021/03/16 10:13:40;;;;;;;9.02;2.83;;;;;;;;;;5105875;28;20442;-53
2021/03/16 10:16:13;;;;;;;7.18;2.70;;;;;;;;;;5104946;28;20035;-51
2021/03/16 10:18:42;;;;;;;9.52;3.28;;;;;;;;;;5105986;28;20038;-51
2021/03/16 10:21:07;;;;;;;8.02;3.08;;;;;;;;;;5088620;28;20092;-53
2021/03/16 10:23:33;;;;;;;11.18;3.17;;;;;;;;;;5099870;28;20044;-52
2021/03/16 10:26:01;;;;;;;8.32;2.72;;;;;;;;;;5104981;28;20039;-50
2021/03/16 10:28:35;;;;;;;10.88;3.22;;;;;;;;;;5104402;28;20409;-52
2021/03/16 10:31:18;;;;;;;11.35;3.53;;;;;;;;;;5108316;28;20027;-54
2021/03/16 10:33:46;;;;;;;11.82;3.38;;;;;;;;;;5104991;28;20110;-49
2021/03/16 10:36:11;;;;;;;6.70;2.80;;;;;;;;;;5097968;28;20643;-54
2021/03/16 10:38:37;;;;;;;13.57;4.03;;;;;;;;;;5098535;28;20047;-49
2021/03/16 10:41:03;;;;;;;10.20;3.80;;;;;;;;;;5083852;28;20039;-50
2021/03/16 10:43:29;;;;;;;13.82;3.85;;;;;;;;;;5095960;28;20093;-52
2021/03/16 10:45:56;;;;;;;10.10;4.10;;;;;;;;;;5099540;28;20032;-49
2021/03/16 10:48:22;;;;;;;8.80;3.42;;;;;;;;;;5104145;28;20039;-52
2021/03/16 10:50:48;;;;;;;10.32;3.78;;;;;;;;;;5109181;28;20031;-53
2021/03/16 10:53:15;;;;;;;8.88;3.65;;;;;;;;;;5107559;28;20043;-54
2021/03/16 10:55:41;;;;;;;11.05;3.92;;;;;;;;;;5105712;28;20035;-50
2021/03/16 10:58:06;;;;;;;9.27;3.83;;;;;;;;;;5109047;28;20031;-50
2021/03/16 11:00:32;;;;;;;8.68;3.83;;;;;;;;;;5107176;28;20058;-52
2021/03/16 11:02:57;;;;;;;9.20;3.97;;;;;;;;;;5108576;28;20771;-52
2021/03/16 11:05:23;;;;;;;8.10;4.07;;;;;;;;;;5108685;28;20036;-53
2021/03/16 11:07:48;;;;;;;10.75;4.10;;;;;;;;;;5109055;28;20050;-53
2021/03/16 11:10:14;;;;;;;11.70;4.63;;;;;;;;;;5105301;28;20032;-54
2021/03/16 11:12:39;;;;;;;11.05;4.35;;;;;;;;;;5101785;28;20059;-53
2021/03/16 11:15:05;;;;;;;10.25;4.15;;;;;;;;;;5088114;28;20031;-51
2021/03/16 11:17:31;;;;;;;10.55;3.90;;;;;;;;;;5098617;28;20046;-50
2021/03/16 11:19:56;;;;;;;8.88;3.65;;;;;;;;;;5107929;28;20031;-52
2021/03/16 11:22:22;;;;;;;6.78;3.40;;;;;;;;;;5104173;28;20064;-54
2021/03/16 11:24:48;;;;;;;6.10;3.47;;;;;;;;;;5107007;28;20036;-54
2021/03/16 11:27:14;;;;;;;7.13;3.60;;;;;;;;;;5101188;28;20032;-54
2021/03/16 11:29:39;;;;;;;6.72;3.85;;;;;;;;;;5102655;28;20038;-53
2021/03/16 11:32:05;;;;;;;9.18;3.45;;;;;;;;;;5101056;28;20028;-51
2021/03/16 11:34:30;;;;;;;8.80;3.03;;;;;;;;;;5095801;28;20031;-52
2021/03/16 11:36:56;;;;;;;9.63;2.78;;;;;;;;;;5106860;28;20047;-51
2021/03/16 11:39:22;;;;;;;9.55;3.00;;;;;;;;;;5105961;28;20035;-52
2021/03/16 11:41:47;;;;;;;9.63;2.60;;;;;;;;;;5088303;28;20047;-51
2021/03/16 11:44:13;;;;;;;5.50;2.65;;;;;;;;;;5095264;28;20035;-51
2021/03/16 11:46:38;;;;;;;7.50;2.65;;;;;;;;;;5095603;28;20087;-50
2021/03/16 11:49:03;;;;;;;7.18;2.97;;;;;;;;;;5106843;28;20027;-48
2021/03/16 11:51:29;;;;;;;10.45;2.72;;;;;;;;;;5101477;28;20020;-53
2021/03/16 11:53:54;;;;;;;7.95;2.78;;;;;;;;;;5099716;28;20081;-51
2021/03/16 11:56:20;;;;;;;6.70;2.13;;;;;;;;;;5100880;28;20043;-50
2021/03/16 11:58:45;;;;;;;8.80;2.90;;;;;;;;;;5103646;28;20365;-48
2021/03/16 12:01:11;;;;;;;8.02;2.85;;;;;;;;;;5106308;28;20031;-52
2021/03/16 12:03:36;;;;;;;4.40;2.22;;;;;;;;;;5107438;28;20535;-49
2021/03/16 12:06:02;;;;;;;5.82;1.90;;;;;;;;;;5105458;28;20035;-53
2021/03/16 12:08:28;;;;;;;4.00;1.75;;;;;;;;;;5107642;28;20499;-55
2021/03/16 12:10:53;;;;;;;7.38;1.90;;;;;;;;;;5105459;28;20107;-52
2021/03/16 12:13:18;;;;;;;6.05;2.47;;;;;;;;;;5107471;28;20529;-52
2021/03/16 12:15:44;;;;;;;7.80;2.63;;;;;;;;;;5102847;28;20102;-50
2021/03/16 12:18:10;;;;;;;6.03;1.95;;;;;;;;;;5104177;28;20082;-50
2021/03/16 12:20:35;;;;;;;4.93;1.85;;;;;;;;;;5096671;28;20369;-51
2021/03/16 12:23:01;;;;;;;6.28;1.90;;;;;;;;;;5106265;28;20112;-52
2021/03/16 12:25:27;;;;;;;5.95;2.60;;;;;;;;;;5107332;28;20031;-52
2021/03/16 12:27:52;;;;;;;5.65;1.90;;;;;;;;;;5103531;28;20712;-51
2021/03/16 12:30:18;;;;;;;5.93;2.30;;;;;;;;;;5106177;28;20039;-55
2021/03/16 12:32:43;;;;;;;7.50;2.53;;;;;;;;;;5105288;28;20034;-50
2021/03/16 12:35:11;;;;;;;9.85;2.92;;;;;;;;;;5104341;28;20070;-49
2021/03/16 12:37:37;;;;;;;7.10;1.90;;;;;;;;;;5106033;28;20032;-51
2021/03/16 12:40:04;;;;;;;8.05;2.10;;;;;;;;;;5102618;28;20046;-53
2021/03/16 12:42:31;;;;;;;11.20;2.38;;;;;;;;;;5089267;28;20138;-47
2021/03/16 12:44:57;;;;;;;7.80;2.50;;;;;;;;;;5106370;28;20031;-50
2021/03/16 12:47:23;;;;;;;6.20;1.90;;;;;;;;;;5106833;28;20382;-47
2021/03/16 12:49:49;;;;;;;6.55;2.10;;;;;;;;;;5106738;28;20711;-49
2021/03/16 12:52:14;;;;;;;14.25;2.60;;;;;;;;;;5101115;27;20024;-51
2021/03/16 12:54:40;;;;;;;10.60;2.40;;;;;;;;;;5104891;28;20110;-51
2021/03/16 12:57:05;;;;;;;9.85;2.22;;;;;;;;;;5106132;28;20044;-48
2021/03/16 12:59:31;;;;;;;5.93;2.15;;;;;;;;;;5106333;28;20381;-50
2021/03/16 13:01:56;;;;;;;8.80;2.65;;;;;;;;;;5100091;28;20042;-46
2021/03/16 13:04:22;;;;;;;9.80;2.80;;;;;;;;;;5106446;28;20043;-51
2021/03/16 13:06:47;;;;;;;7.13;2.42;;;;;;;;;;5101692;28;20111;-52
2021/03/16 13:09:13;;;;;;;12.45;3.83;;;;;;;;;;5099331;28;20032;-48
2021/03/16 13:11:38;;;;;;;11.23;3.13;;;;;;;;;;5103801;28;20592;-47
2021/03/16 13:14:03;;;;;;;6.30;2.30;;;;;;;;;;5084402;28;20023;-50
2021/03/16 13:16:29;;;;;;;5.68;2.40;;;;;;;;;;5097975;28;20042;-50
2021/03/16 13:18:54;;;;;;;6.38;2.65;;;;;;;;;;5103277;28;20038;-47
2021/03/16 13:21:20;;;;;;;9.85;2.78;;;;;;;;;;5086115;28;20031;-49
2021/03/16 13:23:45;;;;;;;4.88;2.05;;;;;;;;;;5093393;28;20077;-48
2021/03/16 13:26:11;;;;;;;6.00;2.65;;;;;;;;;;5092403;28;20028;-48
2021/03/16 13:28:36;;;;;;;8.60;2.50;;;;;;;;;;5093025;28;20027;-53
2021/03/16 13:31:02;;;;;;;7.80;2.30;;;;;;;;;;5096676;28;20101;-48
2021/03/16 13:33:27;;;;;;;12.70;2.40;;;;;;;;;;5097422;28;20571;-50
2021/03/16 13:35:54;;;;;;;5.20;2.00;;;;;;;;;;5102693;28;20032;-49
2021/03/16 13:38:23;;;;;;;5.30;2.20;;;;;;;;;;5099545;28;20073;-51
2021/03/16 13:40:49;;;;;;;6.30;2.75;;;;;;;;;;5103338;28;20039;-53
2021/03/16 13:43:14;;;;;;;5.10;2.45;;;;;;;;;;5088116;28;20510;-52
2021/03/16 13:45:40;;;;;;;6.05;2.47;;;;;;;;;;5097411;28;20032;-48
2021/03/16 13:48:06;;;;;;;8.70;2.72;;;;;;;;;;5104438;28;20054;-50
2021/03/16 13:50:31;;;;;;;14.93;3.08;;;;;;;;;;5102424;28;20039;-48
2021/03/16 13:52:56;;;;;;;5.00;2.65;;;;;;;;;;5105735;28;20107;-51
2021/03/16 13:55:22;;;;;;;5.85;2.50;;;;;;;;;;5109159;28;20070;-51
2021/03/16 13:57:48;;;;;;;6.25;2.28;;;;;;;;;;5107177;28;20085;-51
2021/03/16 14:00:15;;;;;;;6.70;2.70;;;;;;;;;;5109498;28;20027;-49
2021/03/16 14:02:40;;;;;;;5.97;2.42;;;;;;;;;;5105374;28;20364;-51
2021/03/16 14:05:06;;;;;;;6.22;2.33;;;;;;;;;;5108910;28;20036;-49
2021/03/16 14:07:33;;;;;;;9.50;2.72;;;;;;;;;;5110636;28;20054;-49
2021/03/16 14:09:59;;;;;;;5.55;2.45;;;;;;;;;;5092210;28;20062;-49
2021/03/16 14:12:25;;;;;;;8.65;3.20;;;;;;;;;;5098343;28;20050;-47
2021/03/16 14:14:50;;;;;;;8.48;3.40;;;;;;;;;;5104056;28;20175;-50
2021/03/16 14:17:16;;;;;;;8.57;3.88;;;;;;;;;;5104304;28;20039;-51
2021/03/16 14:19:41;;;;;;;8.57;3.40;;;;;;;;;;5105241;28;20027;-47
2021/03/16 14:22:07;;;;;;;7.22;3.17;;;;;;;;;;5107275;28;20071;-52
2021/03/16 14:24:32;;;;;;;5.97;2.85;;;;;;;;;;5105423;28;20040;-53
2021/03/16 14:26:57;;;;;;;6.13;3.20;;;;;;;;;;5108755;28;20040;-54
2021/03/16 14:29:23;;;;;;;10.48;3.75;;;;;;;;;;5106679;28;20101;-50
2021/03/16 14:31:48;;;;;;;16.15;8.25;;;;;;;;;;5103903;28;20092;-49
2021/03/16 14:34:14;;;;;;;10.48;3.28;;;;;;;;;;5110120;28;20036;-48
2021/03/16 14:36:39;;;;;;;6.45;3.05;;;;;;;;;;5109961;28;20104;-48